This is the latest recevied weather packets stored in our database for station/object LA5PPA-1. If no packets are shown the sender has not sent any weather packets the latest 1 day(s).
| Time | Temp. | Humidity | Pressure | Rain* | Wind** | Luminosity | Snow |
|---|---|---|---|---|---|---|---|
| 1778004416 | -0.56° C | 61% | 1014.7 hPa | 0 mm | 0.45 m/s, 293° | - | - |
| 1778004297 | -0.56° C | 61% | 1014.7 hPa | 0 mm | 0.89 m/s, 320° | - | - |
| 1778004115 | -0.56° C | 61% | 1014.6 hPa | 0 mm | 1.79 m/s, 286° | - | - |
| 1778003816 | 0° C | 59% | 1014.6 hPa | 0 mm | 0.89 m/s, 296° | - | - |
| 1778003637 | 0° C | 59% | 1014.6 hPa | 0 mm | 2.24 m/s, 322° | - | - |
| 1778003516 | 0° C | 58% | 1014.6 hPa | 0 mm | 0 m/s | - | - |
| 1778003216 | 0° C | 57% | 1014.5 hPa | 0 mm | 2.24 m/s, 307° | - | - |
| 1778002977 | 0° C | 55% | 1014.5 hPa | 0 mm | 1.34 m/s, 307° | - | - |
| 1778002916 | 0° C | 55% | 1014.6 hPa | 0 mm | 1.34 m/s, 324° | - | - |
| 1778002616 | 0° C | 52% | 1014.6 hPa | 0 mm | 2.24 m/s, 326° | - | - |
| 1778002316 | 0.56° C | 52% | 1014.6 hPa | 0 mm | 3.58 m/s, 255° | - | - |
| 1778002016 | 0.56° C | 51% | 1014.6 hPa | 0 mm | 2.68 m/s, 292° | - | - |
| 1778001716 | 0.56° C | 51% | 1014.6 hPa | 0 mm | 1.79 m/s, 309° | - | - |
| 1778001657 | 0.56° C | 51% | 1014.6 hPa | 0 mm | 1.34 m/s, 300° | - | - |
| 1778001416 | 0.56° C | 48% | 1014.6 hPa | 0 mm | 2.24 m/s, 300° | - | - |
| 1778001116 | 1.11° C | 51% | 1014.6 hPa | 0 mm | 1.34 m/s, 289° | - | - |
| 1778000997 | 0.56° C | 51% | 1014.5 hPa | 0 mm | 1.34 m/s, 299° | - | - |
| 1778000816 | 0.56° C | 50% | 1014.6 hPa | 0 mm | 2.24 m/s, 270° | - | - |
| 1778000516 | 0.56° C | 50% | 1014.5 hPa | 0 mm | 0.89 m/s, 310° | - | - |
| 1778000338 | 0.56° C | 49% | 1014.5 hPa | 0 mm | 1.34 m/s, 300° | - | - |
| 1778000227 | 0.56° C | 48% | 1014.6 hPa | 0 mm | 1.79 m/s, 275° | - | - |
| 1777999916 | 0.56° C | 52% | 1014.5 hPa | 0 mm | 0 m/s | - | - |
| 1777999677 | 0° C | 52% | 1014.6 hPa | 0 mm | 0 m/s | - | - |
| 1777999616 | 0° C | 52% | 1014.7 hPa | 0 mm | 0.45 m/s, 319° | - | - |
| 1777999316 | 0° C | 52% | 1014.6 hPa | 0 mm | 2.68 m/s, 316° | - | - |
* Rain latest hour (hover to see other rain measurements)
** Current wind speed in m/s (hover to see current wind gust speed)